createdAt,value
2022-08-05T00:00:00.861Z,6.8
2022-08-05T00:05:00.995Z,7.1
2022-08-05T00:10:00.887Z,7.6
2022-08-05T00:15:14.075Z,7.8
2022-08-05T00:20:02.313Z,7.5
2022-08-05T00:25:01.181Z,8.0
2022-08-05T00:30:00.809Z,8.4
2022-08-05T00:35:04.889Z,8.3
2022-08-05T00:40:00.857Z,8.7
2022-08-05T00:45:00.858Z,10.0
2022-08-05T00:55:00.919Z,10.3
2022-08-05T01:00:00.816Z,10.2
2022-08-05T01:05:01.095Z,10.7
2022-08-05T01:10:00.865Z,10.0
2022-08-05T01:15:03.979Z,10.8
2022-08-05T01:20:03.196Z,11.0
2022-08-05T01:25:00.945Z,11.2
2022-08-05T01:30:05.895Z,10.6
2022-08-05T01:35:00.807Z,10.5
2022-08-05T01:40:00.846Z,9.8
2022-08-05T01:45:02.170Z,9.1
2022-08-05T01:50:02.355Z,8.8
2022-08-05T02:00:00.878Z,9.3
2022-08-05T02:05:00.935Z,9.9
2022-08-05T02:10:00.809Z,10.2
2022-08-05T02:15:00.947Z,10.5
2022-08-05T02:30:01.441Z,9.8
2022-08-05T02:35:02.067Z,10.8
2022-08-05T02:40:01.370Z,11.2
2022-08-05T02:45:01.435Z,11.3
2022-08-05T02:50:01.358Z,11.2
2022-08-05T02:55:01.654Z,11.8
2022-08-05T03:00:01.638Z,11.7
2022-08-05T03:05:01.472Z,11.4
2022-08-05T03:10:06.342Z,11.1
2022-08-05T03:15:01.468Z,11.1
2022-08-05T03:20:01.345Z,11.5
2022-08-05T03:25:02.218Z,11.6
2022-08-05T03:30:07.950Z,12.0
2022-08-05T03:35:01.382Z,11.9
2022-08-05T03:40:03.930Z,12.7
2022-08-05T03:45:01.474Z,12.1
2022-08-05T03:50:06.295Z,11.6
2022-08-05T03:55:54.471Z,11.0
2022-08-05T04:00:01.537Z,10.9
2022-08-05T04:05:01.357Z,10.2
2022-08-05T04:10:01.752Z,9.9
2022-08-05T04:15:01.409Z,10.0
2022-08-05T04:20:01.284Z,9.9
2022-08-05T04:25:01.409Z,10.3
2022-08-05T04:30:03.652Z,10.6
2022-08-05T04:35:01.340Z,10.3
2022-08-05T04:45:01.334Z,10.5
2022-08-05T04:50:10.862Z,10.3
2022-08-05T04:55:13.785Z,9.3
2022-08-05T05:00:01.401Z,9.4
2022-08-05T05:05:02.055Z,9.7
2022-08-05T05:10:02.076Z,10.1
2022-08-05T05:15:03.639Z,11.1
2022-08-05T05:20:01.282Z,11.5
2022-08-05T05:25:01.443Z,11.7
2022-08-05T05:30:03.652Z,11.4
2022-08-05T05:35:01.352Z,11.1
2022-08-05T05:40:01.305Z,10.4
2022-08-05T05:45:01.359Z,10.2
2022-08-05T05:50:01.904Z,10.0
2022-08-05T05:55:01.787Z,9.6
2022-08-05T06:00:01.295Z,9.3
2022-08-05T06:05:03.439Z,8.8
2022-08-05T06:10:04.579Z,8.7
2022-08-05T06:15:01.312Z,9.0
2022-08-05T06:25:01.438Z,8.8
2022-08-05T06:30:04.123Z,8.4
2022-08-05T06:35:05.917Z,8.6
2022-08-05T06:40:02.448Z,8.1
2022-08-05T06:45:05.395Z,8.0
2022-08-05T06:55:02.419Z,8.1
2022-08-05T07:00:01.303Z,7.7
2022-08-05T07:05:01.421Z,7.2
2022-08-05T07:15:01.420Z,7.1
2022-08-05T07:40:04.907Z,4.0
2022-08-05T07:45:00.999Z,4.2
2022-08-05T07:50:01.077Z,4.8
2022-08-05T07:55:01.189Z,4.9
2022-08-05T08:00:01.024Z,4.8
2022-08-05T08:10:01.227Z,5.1
2022-08-05T08:15:02.320Z,5.0
2022-08-05T08:20:10.552Z,4.6
2022-08-05T08:25:02.681Z,4.5
2022-08-05T08:30:04.896Z,4.4
2022-08-05T08:35:00.946Z,4.2
2022-08-05T08:40:00.915Z,4.4
2022-08-05T08:45:21.733Z,4.8
2022-08-05T08:50:05.435Z,5.1
2022-08-05T08:55:00.984Z,5.3
2022-08-05T09:00:00.938Z,4.9
2022-08-05T09:05:17.070Z,5.0
2022-08-05T09:10:00.924Z,4.6
2022-08-05T09:15:05.912Z,4.2
2022-08-05T09:25:01.038Z,4.6
2022-08-05T09:30:04.693Z,4.4
2022-08-05T09:40:01.203Z,4.5
2022-08-05T09:45:03.442Z,4.2
2022-08-05T09:50:03.338Z,4.0
2022-08-05T09:55:06.538Z,3.8
2022-08-05T10:00:03.695Z,4.2
2022-08-05T10:05:01.123Z,4.0
2022-08-05T10:15:01.115Z,4.1
2022-08-05T10:30:06.278Z,3.8
2022-08-05T10:35:01.484Z,3.3
2022-08-05T10:40:04.348Z,3.1
2022-08-05T11:00:01.411Z,3.0
2022-08-05T11:05:00.943Z,3.4
2022-08-05T11:10:03.837Z,3.6
2022-08-05T11:15:12.025Z,3.8
2022-08-05T11:20:09.705Z,3.6
2022-08-05T11:40:03.331Z,4.0
2022-08-05T11:45:01.486Z,3.3
2022-08-05T11:50:01.710Z,3.4
2022-08-05T12:00:01.456Z,3.3
2022-08-05T12:05:06.674Z,3.7
2022-08-05T12:10:06.013Z,4.0
2022-08-05T12:15:01.490Z,3.9
2022-08-05T12:20:17.613Z,4.0
2022-08-05T12:25:01.331Z,4.2
2022-08-05T12:30:03.222Z,3.8
2022-08-05T12:35:03.989Z,3.5
2022-08-05T12:40:03.085Z,4.0
2022-08-05T12:45:01.396Z,4.0
2022-08-05T12:50:02.630Z,3.9
2022-08-05T13:00:09.136Z,4.2
2022-08-05T13:05:01.311Z,3.9
2022-08-05T13:10:01.367Z,4.2
2022-08-05T13:15:05.234Z,4.0
2022-08-05T13:20:01.324Z,3.8
2022-08-05T13:30:31.587Z,4.1
2022-08-05T13:35:01.285Z,3.8
2022-08-05T13:40:13.314Z,4.2
2022-08-05T13:45:01.283Z,4.4
2022-08-05T13:50:01.334Z,4.2
2022-08-05T13:55:01.519Z,3.9
2022-08-05T14:00:06.444Z,3.8
2022-08-05T14:10:01.377Z,3.6
2022-08-05T14:15:01.447Z,3.8
2022-08-05T14:20:04.771Z,3.7
2022-08-05T14:25:01.400Z,3.8
2022-08-05T14:30:01.343Z,3.4
2022-08-05T14:45:01.334Z,3.2
2022-08-05T14:50:04.815Z,3.3
2022-08-05T14:55:01.402Z,3.4
2022-08-05T15:00:01.309Z,3.5
2022-08-05T15:05:01.431Z,3.4
2022-08-05T15:10:03.249Z,3.1
2022-08-05T15:15:01.359Z,2.7
2022-08-05T15:20:01.292Z,2.6
2022-08-05T15:25:11.798Z,2.2
2022-08-05T15:30:01.243Z,2.1
2022-08-05T15:35:09.946Z,2.4
2022-08-05T15:40:42.443Z,2.6
2022-08-05T15:45:01.212Z,2.8
2022-08-05T15:50:01.440Z,2.9
2022-08-05T15:55:01.532Z,2.7
2022-08-05T16:00:02.286Z,3.0
2022-08-05T16:10:01.279Z,2.8
2022-08-05T16:15:01.338Z,3.0
2022-08-05T16:30:01.325Z,2.8
2022-08-05T16:35:01.257Z,2.6
2022-08-05T16:40:04.336Z,2.4
2022-08-05T16:45:01.175Z,2.6
2022-08-05T16:50:01.177Z,2.4
2022-08-05T16:55:01.309Z,2.5
2022-08-05T17:00:04.496Z,2.6
2022-08-05T17:05:01.361Z,3.0
2022-08-05T17:15:01.369Z,2.9
2022-08-05T17:20:01.181Z,2.8
2022-08-05T17:25:01.319Z,2.7
2022-08-05T17:30:02.337Z,2.4
2022-08-05T17:40:01.325Z,2.5
2022-08-05T17:45:09.996Z,2.9
2022-08-05T17:50:04.471Z,3.0
2022-08-05T17:55:01.246Z,3.2
2022-08-05T18:00:03.839Z,3.4
2022-08-05T18:10:01.950Z,3.3
2022-08-05T18:15:01.304Z,3.3
2022-08-05T18:25:01.236Z,3.2
2022-08-05T18:30:01.170Z,3.2
2022-08-05T18:35:01.333Z,3.0
2022-08-05T18:40:31.863Z,3.2
2022-08-05T18:55:01.239Z,3.0
2022-08-05T19:00:04.884Z,3.0
2022-08-05T19:10:01.179Z,2.7
2022-08-05T19:15:02.577Z,2.6
2022-08-05T19:20:01.089Z,2.5
2022-08-05T19:25:02.527Z,2.3
2022-08-05T19:30:01.084Z,2.3
2022-08-05T19:35:05.749Z,2.5
2022-08-05T19:40:01.278Z,3.0
2022-08-05T19:45:01.403Z,3.3
2022-08-05T19:50:01.217Z,3.4
2022-08-05T20:00:02.735Z,3.6
2022-08-05T20:05:01.302Z,3.4
2022-08-05T20:15:01.242Z,3.3
2022-08-05T20:20:07.659Z,3.4
2022-08-05T20:25:01.184Z,3.6
2022-08-05T20:30:01.115Z,3.4
2022-08-05T20:35:01.182Z,3.2
2022-08-05T20:40:01.151Z,3.4
2022-08-05T20:45:01.199Z,3.6
2022-08-05T20:50:02.236Z,3.8
2022-08-05T20:55:16.044Z,4.2
2022-08-05T21:00:11.337Z,4.4
2022-08-05T21:10:01.195Z,4.2
2022-08-05T21:15:01.232Z,4.0
2022-08-05T21:20:04.365Z,3.8
2022-08-05T21:35:09.178Z,3.6
2022-08-05T21:40:01.179Z,4.0
2022-08-05T21:45:01.234Z,4.2
2022-08-05T21:50:01.962Z,4.6
2022-08-05T21:55:06.076Z,4.5
2022-08-05T22:00:04.908Z,4.7
2022-08-05T22:05:01.277Z,5.1
2022-08-05T22:15:01.219Z,5.0
2022-08-05T22:20:08.257Z,4.7
2022-08-05T22:25:01.212Z,4.9
2022-08-05T22:30:01.079Z,5.2
2022-08-05T22:35:01.142Z,5.0
2022-08-05T22:40:01.135Z,4.8
2022-08-05T22:45:01.158Z,5.0
2022-08-05T22:55:01.167Z,4.9
2022-08-05T23:00:01.116Z,4.5
2022-08-05T23:05:01.388Z,4.7
2022-08-05T23:10:01.798Z,4.8
2022-08-05T23:15:01.437Z,5.4
2022-08-05T23:20:01.121Z,5.2
2022-08-05T23:30:01.252Z,5.2
2022-08-05T23:35:01.195Z,5.0
2022-08-05T23:45:01.261Z,4.4
2022-08-05T23:50:01.168Z,4.3
